Sira — V7QT5 — position and weather

sailwx.info

Track history (hours):
 
Tides and Currents Weather Stations Pressure Air Temp Water Temp Dewpoint Dewpoint Depression Visibility Wind Speed Wind Dir Waves Ship Positions

Sira

Last reported at 2014-Sep-22 04:29 UTC. Time now 2014-Sep-22 10:18 UTC.
Position N 38°42' E 008°20'.

Length 147 m; draft 5.9 m.

Type: Ship (hazmat cat A). MMSI: 538003434.

Date/timePositionNaut miles runAvg speedWind from/ knotsBaromVisibWave heightAir tempDewpointWater temp
2014-Sep-22 04:29N 38°42' E 008°20'1313.5
2014-Sep-22 03:33N 38°36' E 008°34'1313.2
2014-Sep-22 02:33N 38°29' E 008°48'1313.5
2014-Sep-22 01:34N 38°23' E 009°03'1413.7
2014-Sep-22 00:33N 38°16' E 009°19'1313.5
2014-Sep-21 23:34N 38°10' E 009°34'1313.3
2014-Sep-21 22:33N 38°03' E 009°48'1313.1
2014-Sep-21 21:32N 37°57' E 010°03'1212.5
2014-Sep-21 20:33N 37°51' E 010°17'8912.7
2014-Sep-21 13:33N 37°08' E 011°55'2613.1
2014-Sep-21 11:33N 36°54' E 012°23'1313.0
2014-Sep-21 10:33N 36°50' E 012°38'1313.1
2014-Sep-21 09:33N 36°45' E 012°53'1313.0
2014-Sep-21 08:33N 36°41' E 013°09'1312.9
2014-Sep-21 07:34N 36°37' E 013°24'1312.7
2014-Sep-21 06:33N 36°32' E 013°38'1312.6
2014-Sep-21 05:33N 36°28' E 013°53'1312.5
2014-Sep-21 04:33N 36°26' E 014°09'1312.7
2014-Sep-21 03:33N 36°25' E 014°24'1313.0
2014-Sep-21 02:34N 36°26' E 014°40'1313.0
2014-Sep-21 01:33N 36°26' E 014°57'1313.2
2014-Sep-21 00:33N 36°26' E 015°13'9 8.6
2014-Sep-20 23:31N 36°30' E 015°23'  
Track history (hours):
 
Tides and Currents Weather Stations Pressure Air Temp Water Temp Dewpoint Dewpoint Depression Visibility Wind Speed Wind Dir Waves Ship Positions

Sira

Last reported at 2014-Sep-22 04:29 UTC. Time now 2014-Sep-22 10:18 UTC.
Position N 38°42' E 008°20'.

Length 147 m; draft 5.9 m.

Type: Ship (hazmat cat A). MMSI: 538003434.

Date/timePositionNaut miles runAvg speedWind from/ knotsBaromVisibWave heightAir tempDewpointWater temp
2014-Sep-22 04:29N 38°42' E 008°20'1313.5
2014-Sep-22 03:33N 38°36' E 008°34'1313.2
2014-Sep-22 02:33N 38°29' E 008°48'1313.5
2014-Sep-22 01:34N 38°23' E 009°03'1413.7
2014-Sep-22 00:33N 38°16' E 009°19'1313.5
2014-Sep-21 23:34N 38°10' E 009°34'1313.3
2014-Sep-21 22:33N 38°03' E 009°48'1313.1
2014-Sep-21 21:32N 37°57' E 010°03'1212.5
2014-Sep-21 20:33N 37°51' E 010°17'8912.7
2014-Sep-21 13:33N 37°08' E 011°55'2613.1
2014-Sep-21 11:33N 36°54' E 012°23'1313.0
2014-Sep-21 10:33N 36°50' E 012°38'1313.1
2014-Sep-21 09:33N 36°45' E 012°53'1313.0
2014-Sep-21 08:33N 36°41' E 013°09'1312.9
2014-Sep-21 07:34N 36°37' E 013°24'1312.7
2014-Sep-21 06:33N 36°32' E 013°38'1312.6
2014-Sep-21 05:33N 36°28' E 013°53'1312.5
2014-Sep-21 04:33N 36°26' E 014°09'1312.7
2014-Sep-21 03:33N 36°25' E 014°24'1313.0
2014-Sep-21 02:34N 36°26' E 014°40'1313.0
2014-Sep-21 01:33N 36°26' E 014°57'1313.2
2014-Sep-21 00:33N 36°26' E 015°13'9 8.6
2014-Sep-20 23:31N 36°30' E 015°23'  

Dump ship's entire track history